Terminal Aerodrome Forecast
Issued by NWS

Home | Current Version | Previous Version | Text Only | Print | Product List | Glossary On
Versions: 1 2 3 4 5 6 7 8 9 10 11 12 13 14 15
000
FTUS46 KMTR 011500 CCA
TAFOAK
TAF COR
KOAK 011510Z 0115/0218 32006KT P6SM FEW010 SCT200
      TEMPO 0115/0117 BKN008 BKN200
     FM012000 30015KT P6SM FEW200
     FM020400 30008KT P6SM FEW250=

USA.gov is the U.S. government's official web portal to all federal, state and local government web resources and services.